Time;durP1;ratioP1;P1;durP2;ratioP2;P2;SDS_P1;SDS_P2;PMS_P1;PMS_P2;Temp;Humidity;BMP_temperature;BMP_pressure;BME280_temperature;BME280_humidity;BME280_pressure;Samples;Min_cycle;Max_cycle;Signal;HPM_P1;HPM_P2
2023/06/05 00:01:26;;;;;;;;;0.00;0.00;;;;;-146.67;27.36;74174.50;4999723;28;61919;-76
2023/06/05 00:03:56;;;;;;;;;0.00;0.00;;;;;-146.67;27.27;74186.47;5003942;28;61991;-76
2023/06/05 00:06:21;;;;;;;;;0.00;0.00;;;;;-146.67;28.13;74204.44;5002990;28;61826;-76
2023/06/05 00:08:47;;;;;;;;;0.00;0.00;;;;;-146.67;28.07;74204.44;5003168;28;61797;-76
2023/06/05 00:11:12;;;;;;;;;0.00;0.00;;;;;-146.67;27.76;74216.44;5003807;28;61708;-76
2023/06/05 00:13:38;;;;;;;;;0.00;0.00;;;;;-146.67;28.21;74234.38;4985332;28;62194;-76
2023/06/05 00:16:03;;;;;;;;;0.00;0.00;;;;;-146.67;28.16;74236.38;5003262;28;61979;-76
2023/06/05 00:18:30;;;;;;;;;0.00;0.00;;;;;-146.67;27.86;74232.41;5002834;28;61905;-76
2023/06/05 00:20:55;;;;;;;;;0.00;0.00;;;;;-146.67;28.23;74226.41;5003406;28;61917;-76
2023/06/05 00:23:20;;;;;;;;;0.00;0.00;;;;;-146.67;27.62;74220.41;5003103;28;62020;-76
2023/06/05 00:25:46;;;;;;;;;0.00;0.00;;;;;-146.67;28.16;74228.41;4984733;28;63502;-76
2023/06/05 00:28:11;;;;;;;;;0.00;0.00;;;;;-146.67;28.54;74258.34;5003136;28;61947;-76
2023/06/05 00:30:37;;;;;;;;;0.00;0.00;;;;;-146.67;28.21;74264.34;5003168;28;62040;-76
2023/06/05 00:33:02;;;;;;;;;0.00;0.00;;;;;-146.67;28.27;74256.34;5003475;28;62121;-76
2023/06/05 00:35:28;;;;;;;;;0.00;0.00;;;;;-146.67;27.82;74260.34;4984871;28;63643;-76
2023/06/05 00:37:53;;;;;;;;;0.00;0.00;;;;;-146.67;28.16;74254.34;5003117;28;61839;-76
2023/06/05 00:40:18;;;;;;;;;0.00;0.00;;;;;-146.67;27.71;74256.34;5002219;28;62871;-76
2023/06/05 00:42:44;;;;;;;;;0.00;0.00;;;;;-146.67;27.98;74282.31;5002901;28;62462;-75
2023/06/05 00:45:09;;;;;;;;;0.00;0.00;;;;;-146.67;28.05;74280.31;5002644;28;61714;-75
2023/06/05 00:47:35;;;;;;;;;0.00;0.00;;;;;-146.67;28.53;74272.31;5002564;28;61837;-75
2023/06/05 00:50:02;;;;;;;;;0.00;0.00;;;;;-146.67;28.34;74306.25;5003363;28;61808;-76
2023/06/05 00:52:28;;;;;;;;;0.00;0.00;;;;;-146.67;27.95;74298.28;5003125;28;62051;-75
2023/06/05 00:54:54;;;;;;;;;0.00;0.00;;;;;-146.67;28.41;74300.28;5001988;28;63240;-76
2023/06/05 00:57:20;;;;;;;;;0.00;0.00;;;;;-146.67;28.31;74290.28;5001276;28;61919;-76
2023/06/05 00:59:45;;;;;;;;;0.00;0.00;;;;;-146.67;28.41;74288.28;4999517;28;61936;-76
2023/06/05 01:02:14;;;;;;;;;0.00;0.00;;;;;-146.67;28.33;74296.28;4983511;28;62003;-76
2023/06/05 01:04:43;;;;;;;;;0.00;0.00;;;;;-146.67;28.04;74296.28;5001705;28;62195;-76
2023/06/05 01:07:10;;;;;;;;;0.00;0.00;;;;;-146.67;28.05;74298.28;5002716;28;61985;-75
2023/06/05 01:09:37;;;;;;;;;0.00;0.00;;;;;-146.67;27.89;74288.28;5001458;28;61977;-75
2023/06/05 01:12:24;;;;;;;;;0.00;0.00;;;;;-146.67;27.72;74284.28;5002593;28;62209;-75
2023/06/05 01:14:58;;;;;;;;;0.00;0.00;;;;;-146.67;27.73;74284.28;4982220;28;62070;-76
2023/06/05 01:17:28;;;;;;;;;0.00;0.00;;;;;-146.67;28.16;74296.28;4989846;28;61748;-76
2023/06/05 01:19:54;;;;;;;;;0.00;0.00;;;;;-146.67;28.03;74304.25;5002749;28;61752;-76
2023/06/05 01:22:20;;;;;;;;;0.00;0.00;;;;;-146.67;27.84;74300.28;5002782;28;61778;-76
2023/06/05 01:24:47;;;;;;;;;0.00;0.00;;;;;-146.67;28.02;74306.25;4983738;28;63490;-75
2023/06/05 01:27:25;;;;;;;;;0.00;0.00;;;;;-146.67;27.97;74296.28;5002358;28;62202;-75
2023/06/05 01:30:07;;;;;;;;;0.00;0.00;;;;;-146.67;28.30;74328.22;4984854;28;61861;-75
2023/06/05 01:32:46;;;;;;;;;0.00;0.00;;;;;-146.67;28.13;74344.19;4985056;28;61865;-76
2023/06/05 01:35:17;;;;;;;;;0.00;0.00;;;;;-146.67;28.61;74360.16;4983919;28;64070;-76
2023/06/05 01:37:48;;;;;;;;;0.00;0.00;;;;;-146.67;28.45;74368.16;5002797;28;62064;-75
2023/06/05 01:40:16;;;;;;;;;0.00;0.00;;;;;-146.67;28.53;74362.16;4999858;28;62188;-76
2023/06/05 01:42:43;;;;;;;;;0.00;0.00;;;;;-146.67;28.30;74354.16;5003204;28;61839;-76
2023/06/05 01:45:10;;;;;;;;;0.00;0.00;;;;;-146.67;28.53;74362.16;5001707;28;63514;-75
2023/06/05 01:47:37;;;;;;;;;0.00;0.00;;;;;-146.67;28.64;74360.16;5002062;28;62086;-75
2023/06/05 01:50:03;;;;;;;;;0.00;0.00;;;;;-146.67;28.70;74358.16;5002810;28;61874;-75
2023/06/05 01:52:29;;;;;;;;;0.00;0.00;;;;;-146.67;28.15;74366.16;5002418;28;62165;-75
2023/06/05 01:54:54;;;;;;;;;0.00;0.00;;;;;-146.67;28.71;74368.16;5001354;28;61978;-76
2023/06/05 01:57:20;;;;;;;;;0.00;0.00;;;;;-146.67;28.86;74360.16;5002002;28;61996;-75
2023/06/05 01:59:46;;;;;;;;;1.00;1.00;;;;;-146.67;28.77;74358.16;5002557;28;61946;-76
2023/06/05 02:02:14;;;;;;;;;0.00;0.00;;;;;-146.67;28.86;74360.16;5001303;28;62215;-75
2023/06/05 02:04:40;;;;;;;;;0.00;0.00;;;;;-146.67;28.38;74356.16;5000771;28;64235;-75
2023/06/05 02:07:05;;;;;;;;;0.00;0.00;;;;;-146.67;28.62;74366.16;5002466;28;62304;-75
2023/06/05 02:09:34;;;;;;;;;0.00;0.00;;;;;-146.67;28.55;74364.16;5001799;28;61732;-75
2023/06/05 02:12:03;;;;;;;;;0.00;0.00;;;;;-146.67;28.77;74364.16;5002716;28;61805;-76
2023/06/05 02:14:31;;;;;;;;;0.00;0.00;;;;;-146.67;28.72;74356.16;5001508;28;62829;-75
2023/06/05 02:16:58;;;;;;;;;0.00;0.00;;;;;-146.67;28.75;74352.19;5001760;28;62067;-75
2023/06/05 02:19:23;;;;;;;;;0.00;0.00;;;;;-146.67;29.04;74356.16;5002333;28;61936;-75
2023/06/05 02:21:51;;;;;;;;;0.00;0.00;;;;;-146.67;29.00;74374.13;5002322;28;62480;-76
2023/06/05 02:24:18;;;;;;;;;0.00;0.00;;;;;-146.67;28.94;74376.13;5000990;28;63290;-75
2023/06/05 02:26:44;;;;;;;;;0.00;0.00;;;;;-146.67;29.05;74380.13;5002051;28;61805;-76
2023/06/05 02:29:09;;;;;;;;;0.00;0.00;;;;;-146.67;29.18;74394.09;5002379;28;62070;-75
2023/06/05 02:31:36;;;;;;;;;0.00;0.00;;;;;-146.67;29.38;74404.09;5002152;28;62139;-75
2023/06/05 02:34:02;;;;;;;;;0.00;0.00;;;;;-146.67;29.08;74406.06;5001863;28;62455;-75
2023/06/05 02:36:32;;;;;;;;;0.00;0.00;;;;;-146.67;29.28;74400.09;5002004;28;62088;-75
2023/06/05 02:38:58;;;;;;;;;0.00;0.00;;;;;-146.67;29.41;74406.06;4984118;28;61947;-75
2023/06/05 02:41:24;;;;;;;;;0.00;0.00;;;;;-146.67;29.18;74410.06;5002346;28;61957;-75
2023/06/05 02:43:50;;;;;;;;;0.00;0.00;;;;;-146.67;29.41;74410.06;4999832;28;63509;-75
2023/06/05 02:46:15;;;;;;;;;0.00;0.00;;;;;-146.67;29.61;74422.03;5002136;28;62006;-75
2023/06/05 02:48:40;;;;;;;;;0.00;0.00;;;;;-146.67;29.67;74428.03;5001535;28;61764;-76
2023/06/05 02:51:06;;;;;;;;;0.00;0.00;;;;;-146.67;29.52;74424.03;4984599;28;62308;-75
2023/06/05 02:53:32;;;;;;;;;0.00;0.00;;;;;-146.67;29.57;74422.03;5000721;28;62754;-75
2023/06/05 02:56:00;;;;;;;;;0.00;0.00;;;;;-146.67;29.71;74416.06;5002013;28;62026;-75
2023/06/05 02:58:28;;;;;;;;;0.00;0.00;;;;;-146.67;29.53;74424.03;4982470;28;61943;-75
2023/06/05 03:00:55;;;;;;;;;0.00;0.00;;;;;-146.67;29.62;74428.03;4994604;28;61703;-75
2023/06/05 03:03:25;;;;;;;;;0.00;0.00;;;;;-146.67;29.80;74436.03;5002290;28;61881;-75
2023/06/05 03:05:52;;;;;;;;;0.00;0.00;;;;;-146.67;29.78;74438.03;4986961;28;61935;-76
2023/06/05 03:08:18;;;;;;;;;0.00;0.00;;;;;-146.67;29.91;74434.03;5005018;28;61808;-76
2023/06/05 03:10:43;;;;;;;;;0.00;0.00;;;;;-146.67;29.49;74442.00;5005098;28;62255;-76
2023/06/05 03:13:09;;;;;;;;;0.00;0.00;;;;;-146.67;29.79;74440.00;5004711;28;61931;-75
2023/06/05 03:15:34;;;;;;;;;0.00;0.00;;;;;-146.67;29.86;74444.00;5005216;28;61724;-75
2023/06/05 03:18:00;;;;;;;;;0.00;0.00;;;;;-146.67;30.24;74446.00;5004920;28;61973;-75
2023/06/05 03:20:26;;;;;;;;;0.00;0.00;;;;;-146.67;30.37;74497.91;4987133;28;61839;-76
2023/06/05 03:22:51;;;;;;;;;0.00;0.00;;;;;-146.67;30.57;74505.91;5004250;28;61988;-75
2023/06/05 03:25:17;;;;;;;;;0.00;0.00;;;;;-146.67;30.37;74515.88;5004831;28;62116;-75
2023/06/05 03:27:43;;;;;;;;;0.00;0.00;;;;;-146.67;30.88;74523.88;5003405;28;61800;-75
2023/06/05 03:30:11;;;;;;;;;0.00;0.00;;;;;-146.67;30.81;74533.84;5003931;28;62182;-76
2023/06/05 03:32:37;;;;;;;;;0.00;0.00;;;;;-146.67;30.85;74537.84;5004550;28;61834;-76
2023/06/05 03:35:02;;;;;;;;;0.75;0.75;;;;;-146.67;31.30;74549.81;5004177;28;62520;-76
2023/06/05 03:37:27;;;;;;;;;0.00;0.00;;;;;-146.67;31.08;74557.81;5003419;28;62111;-75
2023/06/05 03:39:53;;;;;;;;;0.00;0.00;;;;;-146.67;30.88;74551.81;5004699;28;61945;-75
2023/06/05 03:42:18;;;;;;;;;0.00;0.00;;;;;-146.67;31.08;74545.81;5004447;28;63052;-75
2023/06/05 03:44:44;;;;;;;;;0.00;0.00;;;;;-146.67;31.01;74553.81;4987069;28;61899;-75
2023/06/05 03:47:10;;;;;;;;;0.00;0.00;;;;;-146.67;31.00;74539.84;5004011;28;61878;-76
2023/06/05 03:49:36;;;;;;;;;0.00;0.00;;;;;-146.67;30.97;74541.84;5004777;28;61798;-75
2023/06/05 03:52:02;;;;;;;;;0.00;0.00;;;;;-146.67;31.25;74557.81;5003858;28;62992;-75
2023/06/05 03:54:28;;;;;;;;;0.00;0.00;;;;;-146.67;31.17;74571.78;5004323;28;61915;-75
2023/06/05 03:56:58;;;;;;;;;0.00;0.00;;;;;-146.67;31.43;74577.78;5004516;28;62007;-75
2023/06/05 03:59:25;;;;;;;;;0.00;0.00;;;;;-146.67;31.76;74591.75;5004845;28;61794;-75
2023/06/05 04:01:51;;;;;;;;;0.00;0.00;;;;;-146.67;31.59;74599.72;5003702;28;61892;-76
2023/06/05 04:04:16;;;;;;;;;0.00;0.00;;;;;-146.67;31.54;74581.75;5004145;28;61947;-75
2023/06/05 04:06:43;;;;;;;;;0.00;0.00;;;;;-146.67;31.45;74591.75;5004484;28;61847;-75
2023/06/05 04:09:12;;;;;;;;;0.00;0.00;;;;;-146.67;31.58;74583.75;5004021;28;62173;-75
2023/06/05 04:11:41;;;;;;;;;0.00;0.00;;;;;-146.67;31.54;74581.75;5003846;28;61772;-75
2023/06/05 04:14:07;;;;;;;;;0.00;0.00;;;;;-146.67;31.57;74573.78;5003386;28;62122;-76
2023/06/05 04:16:34;;;;;;;;;0.00;0.00;;;;;-146.67;31.58;74575.78;5003189;28;61945;-75
2023/06/05 04:19:00;;;;;;;;;0.00;0.00;;;;;-146.67;31.79;74571.78;5003522;28;61729;-75
2023/06/05 04:21:25;;;;;;;;;0.00;0.00;;;;;-146.67;31.61;74569.78;5001989;28;63818;-75
2023/06/05 04:23:50;;;;;;;;;0.00;0.00;;;;;-146.67;31.67;74579.78;5003797;28;61990;-75
2023/06/05 04:26:17;;;;;;;;;0.00;0.00;;;;;-146.67;31.85;74583.75;5003683;28;62476;-75
2023/06/05 04:28:43;;;;;;;;;0.00;0.00;;;;;-146.67;31.88;74581.75;4986638;28;62189;-76
2023/06/05 04:31:09;;;;;;;;;0.00;0.00;;;;;-146.67;31.64;74585.75;5001688;28;63873;-75
2023/06/05 04:33:34;;;;;;;;;0.00;0.00;;;;;-146.67;31.85;74583.75;5003421;28;61904;-76
2023/06/05 04:36:00;;;;;;;;;0.00;0.00;;;;;-146.67;31.45;74573.78;5003816;28;62492;-75
2023/06/05 04:38:25;;;;;;;;;0.00;0.00;;;;;-146.67;31.67;74577.78;5003326;28;61669;-75
2023/06/05 04:40:51;;;;;;;;;5.25;4.25;;;;;-146.67;31.97;74577.78;5002743;28;61924;-75
2023/06/05 04:43:16;;;;;;;;;0.00;0.00;;;;;-146.67;31.94;74577.78;5003460;28;62333;-76
2023/06/05 04:45:42;;;;;;;;;0.00;0.00;;;;;-146.67;31.78;74575.78;5003839;28;61926;-75
2023/06/05 04:48:08;;;;;;;;;5.50;4.00;;;;;-146.67;31.85;74571.78;5002583;28;61803;-75
2023/06/05 04:50:35;;;;;;;;;0.00;0.00;;;;;-146.67;31.39;74559.81;5002878;28;61807;-76
2023/06/05 04:53:01;;;;;;;;;0.00;0.00;;;;;-146.67;31.80;74561.81;4985946;28;62004;-75
2023/06/05 04:55:26;;;;;;;;;0.00;0.00;;;;;-146.67;31.71;74571.78;4996919;28;62214;-76
2023/06/05 04:57:53;;;;;;;;;0.00;0.00;;;;;-146.67;31.76;74581.75;5000124;28;63098;-76
2023/06/05 05:00:19;;;;;;;;;0.00;0.00;;;;;-146.67;31.85;74581.75;5000286;28;64086;-75
2023/06/05 05:02:44;;;;;;;;;0.00;0.00;;;;;-146.67;31.71;74569.78;5003298;28;62076;-75
2023/06/05 05:05:15;;;;;;;;;0.00;0.00;;;;;-146.67;31.42;74553.81;4999203;28;62296;-75
2023/06/05 05:07:41;;;;;;;;;0.00;0.00;;;;;-146.67;31.48;74549.81;5003515;28;62030;-75
2023/06/05 05:10:09;;;;;;;;;0.00;0.00;;;;;-146.67;31.61;74539.84;5002273;28;62036;-75
2023/06/05 05:12:35;;;;;;;;;0.00;0.00;;;;;-146.67;31.56;74539.84;5002888;28;62025;-76
2023/06/05 05:15:01;;;;;;;;;0.00;0.00;;;;;-146.67;31.67;74559.81;5003497;28;61676;-76
2023/06/05 05:17:26;;;;;;;;;0.00;0.00;;;;;-146.67;31.45;74535.84;4984901;28;62044;-77
2023/06/05 05:19:52;;;;;;;;;0.00;0.00;;;;;-146.67;31.28;74517.88;4995310;28;61830;-79
2023/06/05 05:22:17;;;;;;;;;0.00;0.00;;;;;-146.67;31.23;74523.88;5001779;28;62282;-79
2023/06/05 05:24:42;;;;;;;;;0.00;0.00;;;;;-146.67;31.48;74513.88;5001055;28;61923;-78
2023/06/05 05:27:08;;;;;;;;;0.00;0.00;;;;;-146.67;31.44;74507.91;5000134;28;62331;-76
2023/06/05 05:29:33;;;;;;;;;0.00;0.00;;;;;-146.67;31.28;74491.94;5002693;28;61844;-77
2023/06/05 05:31:59;;;;;;;;;0.00;0.00;;;;;-146.67;30.84;74450.00;4984887;28;62110;-77
2023/06/05 05:34:24;;;;;;;;;0.00;0.00;;;;;-146.67;30.87;74412.06;5003240;28;61790;-77
2023/06/05 05:36:50;;;;;;;;;0.00;0.00;;;;;-146.67;30.47;74360.16;5002624;28;61938;-77
2023/06/05 05:39:15;;;;;;;;;0.00;0.00;;;;;-146.67;30.02;74288.28;5000449;28;62994;-82
2023/06/05 05:41:41;;;;;;;;;0.00;0.00;;;;;-146.67;29.37;74210.44;5000393;28;61957;-82
2023/06/05 05:44:10;;;;;;;;;0.00;0.00;;;;;-146.67;28.75;74162.53;5002795;28;61776;-86
2023/06/05 05:46:36;;;;;;;;;0.00;0.00;;;;;-146.67;28.67;74104.63;5001178;28;62002;-86
2023/06/05 05:49:01;;;;;;;;;0.00;0.00;;;;;-146.67;28.49;74076.69;4985793;28;63430;-82
2023/06/05 05:51:27;;;;;;;;;0.00;0.00;;;;;-146.67;28.36;74090.66;5001746;28;61836;-87
2023/06/05 05:53:52;;;;;;;;;0.00;0.00;;;;;-146.67;28.53;74054.72;4984368;28;62460;-87
2023/06/05 05:56:18;;;;;;;;;0.00;0.00;;;;;-146.67;28.67;74068.69;4984835;28;61738;-81
2023/06/05 05:58:44;;;;;;;;;0.00;0.00;;;;;-146.67;28.27;74054.72;5002186;28;61998;-81
2023/06/05 06:01:09;;;;;;;;;0.00;0.00;;;;;-146.67;28.17;74070.69;5002201;28;61794;-81
2023/06/05 06:03:37;;;;;;;;;0.00;0.00;;;;;-146.67;28.25;74064.72;5003269;28;61760;-81
2023/06/05 06:06:08;;;;;;;;;0.00;0.00;;;;;-146.67;28.72;74100.63;4983780;28;61787;-81
2023/06/05 06:08:34;;;;;;;;;0.00;0.00;;;;;-146.67;28.89;74108.63;5001216;28;62177;-80
2023/06/05 06:11:00;;;;;;;;;0.00;0.00;;;;;-146.67;28.55;74098.66;5001873;28;62130;-80
2023/06/05 06:13:26;;;;;;;;;0.00;0.00;;;;;-146.67;28.27;74086.66;5002317;28;61793;-81
2023/06/05 06:15:51;;;;;;;;;0.00;0.00;;;;;-146.67;28.16;74086.66;5002237;28;61892;-81
2023/06/05 06:18:17;;;;;;;;;0.00;0.00;;;;;-146.67;28.13;74082.69;5001292;28;61987;-84
2023/06/05 06:20:43;;;;;;;;;0.00;0.00;;;;;-146.67;28.20;74048.75;5002091;28;61912;-80
2023/06/05 06:23:09;;;;;;;;;0.00;0.00;;;;;-146.67;27.31;73944.94;5001436;28;61887;-79
2023/06/05 06:25:34;;;;;;;;;0.00;0.00;;;;;-146.67;26.93;73849.13;4983898;28;62362;-79
2023/06/05 06:28:01;;;;;;;;;0.00;0.00;;;;;-146.67;26.84;73829.16;5001172;28;61967;-80
2023/06/05 06:30:27;;;;;;;;;0.00;0.00;;;;;-146.67;26.63;73819.19;5001843;28;61780;-88
2023/06/05 06:32:56;;;;;;;;;0.00;0.00;;;;;-146.67;26.61;73803.22;5001669;28;62037;-89
2023/06/05 06:35:22;;;;;;;;;0.00;0.00;;;;;-146.67;26.83;73879.06;5001382;28;61701;-80
2023/06/05 06:37:48;;;;;;;;;0.00;0.00;;;;;-146.67;27.21;73930.97;4983771;28;63894;-77
2023/06/05 06:40:14;;;;;;;;;0.00;0.00;;;;;-146.67;27.81;74028.78;5004744;28;62162;-79
2023/06/05 06:42:39;;;;;;;;;0.00;0.00;;;;;-146.67;28.63;74112.63;5005452;28;61786;-79
2023/06/05 06:45:06;;;;;;;;;0.00;0.00;;;;;-146.67;28.44;74168.50;5005457;28;61993;-79
2023/06/05 06:47:32;;;;;;;;;0.00;0.00;;;;;-146.67;28.82;74166.50;5004097;28;63058;-79
2023/06/05 06:49:57;;;;;;;;;0.00;0.00;;;;;-146.67;28.52;74180.50;5005640;28;61834;-79
2023/06/05 06:52:23;;;;;;;;;0.00;0.00;;;;;-146.67;29.06;74200.44;5005090;28;62009;-79
2023/06/05 06:54:49;;;;;;;;;0.00;0.00;;;;;-146.67;29.09;74222.41;5005316;28;62090;-79
2023/06/05 06:57:15;;;;;;;;;0.00;0.00;;;;;-146.67;28.90;74204.44;5004484;28;61957;-79
2023/06/05 06:59:40;;;;;;;;;0.00;0.00;;;;;-146.67;28.96;74192.47;5002589;28;61947;-79
2023/06/05 07:02:17;;;;;;;;;0.00;0.00;;;;;-146.67;29.07;74200.44;5004750;28;61764;-79
2023/06/05 07:04:43;;;;;;;;;0.00;0.00;;;;;-146.67;29.55;74252.34;5005159;28;61908;-80
2023/06/05 07:07:11;;;;;;;;;0.00;0.00;;;;;-146.67;29.21;74228.41;5004323;28;61891;-78
2023/06/05 07:09:36;;;;;;;;;0.00;0.00;;;;;-146.67;28.92;74218.41;5004040;28;62232;-78
2023/06/05 07:12:05;;;;;;;;;0.00;0.00;;;;;-146.67;29.10;74218.41;5004830;28;61853;-78
2023/06/05 07:14:33;;;;;;;;;0.00;0.00;;;;;-146.67;29.00;74212.44;4986890;28;62476;-78
2023/06/05 07:17:00;;;;;;;;;0.00;0.00;;;;;-146.67;29.17;74240.38;5004157;28;61961;-78
2023/06/05 07:19:28;;;;;;;;;0.00;0.00;;;;;-146.67;29.18;74232.41;5005239;28;61705;-78
2023/06/05 07:21:57;;;;;;;;;0.00;0.00;;;;;-146.67;29.39;74242.38;5003685;28;61948;-78
2023/06/05 07:24:26;;;;;;;;;0.00;0.00;;;;;-146.67;29.19;74234.38;5004921;28;61944;-78
2023/06/05 07:26:56;;;;;;;;;0.00;0.00;;;;;-146.67;29.24;74204.44;5004005;28;62979;-78
2023/06/05 07:29:26;;;;;;;;;0.00;0.00;;;;;-146.67;29.24;74194.47;5003825;28;62022;-78
2023/06/05 07:31:52;;;;;;;;;0.00;0.00;;;;;-146.67;28.95;74192.47;4987030;28;61793;-78
2023/06/05 07:34:19;;;;;;;;;0.00;0.00;;;;;-146.67;28.87;74184.47;5005153;28;61795;-78
2023/06/05 07:36:45;;;;;;;;;0.00;0.00;;;;;-146.67;29.26;74172.50;5003947;28;62116;-78
2023/06/05 07:39:12;;;;;;;;;0.00;0.00;;;;;-146.67;28.85;74168.50;5004559;28;61996;-77
2023/06/05 07:41:39;;;;;;;;;0.00;0.00;;;;;-146.67;28.55;74170.50;5004258;28;61821;-78
2023/06/05 07:44:05;;;;;;;;;0.00;0.00;;;;;-146.67;28.70;74196.47;5005088;28;62005;-78
2023/06/05 07:46:30;;;;;;;;;0.00;0.00;;;;;-146.67;29.16;74190.47;5003721;28;61916;-78
2023/06/05 07:48:56;;;;;;;;;0.00;0.00;;;;;-146.67;28.64;74182.50;5003701;28;61939;-78
2023/06/05 07:51:21;;;;;;;;;0.00;0.00;;;;;-146.67;28.92;74184.47;4986950;28;61972;-78
2023/06/05 07:53:46;;;;;;;;;0.00;0.00;;;;;-146.67;29.06;74194.47;4986286;28;61771;-78
2023/06/05 07:56:12;;;;;;;;;0.00;0.00;;;;;-146.67;29.14;74206.44;4985630;28;63566;-78
2023/06/05 07:58:39;;;;;;;;;0.00;0.00;;;;;-146.67;29.15;74200.44;5004480;28;61824;-78
2023/06/05 08:01:06;;;;;;;;;0.00;0.00;;;;;-146.67;28.67;74196.47;5001231;28;61851;-78
2023/06/05 08:03:32;;;;;;;;;0.00;0.00;;;;;-146.67;28.86;74194.47;5004799;28;62051;-78
2023/06/05 08:05:58;;;;;;;;;0.00;0.00;;;;;-146.67;28.72;74192.47;5003600;28;61815;-78
2023/06/05 08:08:23;;;;;;;;;0.00;0.00;;;;;-146.67;28.68;74182.50;4986454;28;61832;-78
2023/06/05 08:10:49;;;;;;;;;0.00;0.00;;;;;-146.67;28.51;74178.50;4981442;28;62050;-78
2023/06/05 08:13:15;;;;;;;;;0.00;0.00;;;;;-146.67;29.04;74170.50;5003381;28;61973;-78
2023/06/05 08:15:40;;;;;;;;;0.00;0.00;;;;;-146.67;28.87;74168.50;5002265;28;63565;-78
2023/06/05 08:18:05;;;;;;;;;0.00;0.00;;;;;-146.67;28.91;74168.50;5003092;28;61792;-78
2023/06/05 08:20:31;;;;;;;;;0.00;0.00;;;;;-146.67;28.53;74170.50;5003565;28;62210;-78
2023/06/05 08:23:00;;;;;;;;;0.00;0.00;;;;;-146.67;28.68;74168.50;5003767;28;62006;-78
2023/06/05 08:25:26;;;;;;;;;0.00;0.00;;;;;-146.67;28.63;74160.53;5002746;28;62128;-78
2023/06/05 08:27:52;;;;;;;;;0.00;0.00;;;;;-146.67;28.39;74172.50;5003871;28;61868;-78
2023/06/05 08:30:17;;;;;;;;;0.00;0.00;;;;;-146.67;28.67;74180.50;4986404;28;62105;-78
2023/06/05 08:32:43;;;;;;;;;0.00;0.00;;;;;-146.67;29.08;74162.53;5004213;28;61814;-78
2023/06/05 08:35:10;;;;;;;;;0.00;0.00;;;;;-146.67;28.78;74168.50;5002953;28;61791;-78
2023/06/05 08:37:36;;;;;;;;;0.00;0.00;;;;;-146.67;28.44;74168.50;5003994;28;62078;-78
2023/06/05 08:40:06;;;;;;;;;0.00;0.00;;;;;-146.67;28.87;74160.53;5003246;28;62217;-78
2023/06/05 08:42:32;;;;;;;;;0.00;0.00;;;;;-146.67;28.68;74160.53;5004332;28;62059;-78
2023/06/05 08:44:58;;;;;;;;;0.00;0.00;;;;;-146.67;28.67;74146.56;5003115;28;62124;-78
2023/06/05 08:47:28;;;;;;;;;0.00;0.00;;;;;-146.67;28.96;74138.56;5003200;28;61795;-78
2023/06/05 08:49:55;;;;;;;;;0.00;0.00;;;;;-146.67;28.71;74144.56;5004021;28;61906;-78
2023/06/05 08:52:22;;;;;;;;;0.00;0.00;;;;;-146.67;28.61;74136.56;5003324;28;62202;-78
2023/06/05 08:54:48;;;;;;;;;0.00;0.00;;;;;-146.67;28.57;74134.56;4984353;28;63806;-78
2023/06/05 08:57:13;;;;;;;;;0.00;0.00;;;;;-146.67;28.44;74132.56;5002903;28;62433;-78
2023/06/05 08:59:40;;;;;;;;;2.67;0.67;;;;;-146.67;28.47;74150.53;5003418;28;61949;-78
2023/06/05 09:02:05;;;;;;;;;0.00;0.00;;;;;-146.67;28.67;74174.50;5002893;28;62236;-78
2023/06/05 09:04:31;;;;;;;;;0.00;0.00;;;;;-146.67;28.86;74158.53;5002705;28;61851;-78
2023/06/05 09:06:58;;;;;;;;;0.00;0.00;;;;;-146.67;28.62;74144.56;5003602;28;62198;-78
2023/06/05 09:09:25;;;;;;;;;0.00;0.00;;;;;-146.67;28.56;74126.59;5002781;28;62057;-78
2023/06/05 09:12:06;;;;;;;;;0.00;0.00;;;;;-146.67;28.38;74128.59;5002313;28;61986;-78
2023/06/05 09:14:32;;;;;;;;;0.00;0.00;;;;;-146.67;28.34;74114.63;5002774;28;63155;-78
2023/06/05 09:17:00;;;;;;;;;0.00;0.00;;;;;-146.67;28.20;74100.63;5002691;28;61804;-78
2023/06/05 09:19:36;;;;;;;;;0.00;0.00;;;;;-146.67;28.42;74082.69;5003386;28;61860;-78
2023/06/05 09:22:01;;;;;;;;;0.00;0.00;;;;;-146.67;28.14;74086.66;5002177;28;61815;-78
2023/06/05 09:24:29;;;;;;;;;0.00;0.00;;;;;-146.67;28.21;74076.69;5000568;28;64587;-78
2023/06/05 09:27:08;;;;;;;;;0.00;0.00;;;;;-146.67;28.04;74064.72;5003234;28;61764;-78
2023/06/05 09:29:38;;;;;;;;;0.00;0.00;;;;;-146.67;28.13;74062.72;4965955;28;62067;-78
2023/06/05 09:32:07;;;;;;;;;0.00;0.00;;;;;-146.67;28.53;74054.72;4989777;28;61867;-78
2023/06/05 09:34:38;;;;;;;;;0.00;0.00;;;;;-146.67;27.94;74042.75;5000469;28;63795;-78
2023/06/05 09:37:05;;;;;;;;;0.00;0.00;;;;;-146.67;28.40;74058.72;4985294;28;61812;-78
2023/06/05 09:39:32;;;;;;;;;0.00;0.00;;;;;-146.67;28.37;74048.75;5002540;28;61857;-79
2023/06/05 09:41:59;;;;;;;;;0.00;0.00;;;;;-146.67;28.54;74064.72;5003416;28;61671;-78
2023/06/05 09:44:25;;;;;;;;;0.00;0.00;;;;;-146.67;28.61;74064.72;5002406;28;61908;-78
2023/06/05 09:46:54;;;;;;;;;0.00;0.00;;;;;-146.67;28.02;74042.75;5001208;28;61951;-78
2023/06/05 09:49:21;;;;;;;;;0.00;0.00;;;;;-146.67;27.71;74022.78;5003019;28;62046;-78
2023/06/05 09:51:47;;;;;;;;;0.00;0.00;;;;;-146.67;27.96;73998.84;5002889;28;61890;-78
2023/06/05 09:54:13;;;;;;;;;0.00;0.00;;;;;-146.67;27.42;73984.84;4984224;28;63897;-78
2023/06/05 09:56:43;;;;;;;;;0.00;0.00;;;;;-146.67;27.13;73960.91;5002600;28;61737;-78
2023/06/05 09:59:16;;;;;;;;;0.00;0.00;;;;;-146.67;27.08;73936.94;4984945;28;62078;-79
2023/06/05 10:01:43;;;;;;;;;0.00;0.00;;;;;-146.67;26.69;73918.97;4984687;28;61926;-78
2023/06/05 10:04:10;;;;;;;;;0.00;0.00;;;;;-146.67;26.73;73899.03;5001803;28;62082;-79
2023/06/05 10:06:36;;;;;;;;;0.00;0.00;;;;;-146.67;26.88;73893.03;4984114;28;61849;-79
2023/06/05 10:09:02;;;;;;;;;0.00;0.00;;;;;-146.67;26.99;73875.06;5002507;28;62187;-79
2023/06/05 10:11:28;;;;;;;;;0.00;0.00;;;;;-146.67;26.85;73863.09;4983059;28;62078;-78
2023/06/05 10:13:55;;;;;;;;;0.00;0.00;;;;;-146.67;26.65;73843.13;4991977;28;63705;-79
2023/06/05 10:16:21;;;;;;;;;0.00;0.00;;;;;-146.67;26.25;73809.19;5000651;28;62078;-78
2023/06/05 10:18:48;;;;;;;;;0.00;0.00;;;;;-146.67;25.96;73787.25;4999297;28;62669;-79
2023/06/05 10:21:17;;;;;;;;;0.00;0.00;;;;;-146.67;25.90;73769.28;5001686;28;62116;-79
2023/06/05 10:24:05;;;;;;;;;0.00;0.00;;;;;-146.67;25.59;73759.28;4998908;28;63054;-79
2023/06/05 10:27:12;;;;;;;;;0.00;0.00;;;;;-146.67;25.86;73749.31;5000549;28;62137;-79
2023/06/05 10:29:52;;;;;;;;;1.00;1.00;;;;;-146.67;26.05;73735.34;5001290;28;61911;-87
2023/06/05 10:32:44;;;;;;;;;0.00;0.00;;;;;-146.67;25.74;73721.38;5001876;28;61768;-87
2023/06/05 10:35:43;;;;;;;;;0.00;0.00;;;;;-146.67;25.45;73689.44;4981010;28;63784;-88
2023/06/05 10:38:22;;;;;;;;;0.00;0.00;;;;;-146.67;25.25;73669.47;4982505;28;61814;-88
2023/06/05 10:41:02;;;;;;;;;10.00;10.00;;;;;-146.67;25.13;73655.50;4981774;28;62093;-88
2023/06/05 10:43:32;;;;;;;;;0.00;0.00;;;;;-146.67;25.17;73645.53;4982966;28;62654;-89
2023/06/05 10:46:00;;;;;;;;;0.00;0.00;;;;;-146.67;25.28;73627.56;5000950;28;62102;-89
2023/06/05 10:49:03;;;;;;;;;0.00;0.00;;;;;-146.67;25.19;73617.56;4999576;28;62016;-88
2023/06/05 10:51:39;;;;;;;;;0.00;0.00;;;;;-146.67;25.26;73613.59;5001406;28;61860;-89
2023/06/05 10:54:09;;;;;;;;;0.00;0.00;;;;;-146.67;25.33;73605.59;4995485;28;61927;-89
2023/06/05 10:56:56;;;;;;;;;0.00;0.00;;;;;-146.67;25.43;73581.66;5001098;28;62347;-88
2023/06/05 10:59:36;;;;;;;;;0.00;0.00;;;;;-146.67;25.26;73553.72;5001558;28;61899;-88
2023/06/05 11:02:05;;;;;;;;;0.00;0.00;;;;;-146.67;25.02;73525.75;5001687;28;61822;-88
2023/06/05 11:04:51;;;;;;;;;0.00;0.00;;;;;-146.67;24.83;73513.78;4983696;28;61965;-89
2023/06/05 11:07:20;;;;;;;;;0.00;0.00;;;;;-146.67;24.90;73503.81;5000657;28;61741;-89
2023/06/05 11:10:23;;;;;;;;;0.00;0.00;;;;;-146.67;25.19;73471.88;4983119;28;62193;-88
2023/06/05 11:12:51;;;;;;;;;0.00;0.00;;;;;-146.67;24.74;73455.91;5001533;28;62130;-88
2023/06/05 11:15:26;;;;;;;;;0.00;0.00;;;;;-146.67;24.57;73435.94;4982008;28;61929;-89
2023/06/05 11:17:52;;;;;;;;;0.00;0.00;;;;;-146.67;24.48;73423.97;4996337;28;61992;-88
2023/06/05 11:20:23;;;;;;;;;0.00;0.00;;;;;-146.67;24.62;73427.97;4997640;28;61962;-89